TimeCST,TemperatureF,Dew PointF,Humidity,Sea Level PressureIn,VisibilityMPH,Wind Direction,Wind SpeedMPH,Gust SpeedMPH,PrecipitationIn,Events,Conditions,WindDirDegrees,DateUTC
12:54 AM,21.0,18.0,88,29.86,9.0,ENE,4.6,-,N/A,,Overcast,60,2013-12-21 06:54:00
1:15 AM,21.0,19.0,92,29.79,8.0,North,4.6,-,N/A,,Overcast,10,2013-12-21 07:15:00
1:54 AM,21.0,19.0,92,29.86,7.0,NE,3.5,-,N/A,,Overcast,50,2013-12-21 07:54:00
2:54 AM,21.0,19.0,92,29.89,6.0,Calm,Calm,-,N/A,,Overcast,0,2013-12-21 08:54:00
3:37 AM,21.0,18.0,88,29.83,5.0,NNW,4.6,-,N/A,,Overcast,340,2013-12-21 09:37:00
3:54 AM,21.0,19.0,92,29.90,3.0,NNW,3.5,-,N/A,,Overcast,330,2013-12-21 09:54:00
4:05 AM,21.0,19.0,92,29.84,2.5,Calm,Calm,-,N/A,,Overcast,0,2013-12-21 10:05:00
4:21 AM,21.0,19.0,92,29.82,1.5,NNW,4.6,-,N/A,,Overcast,340,2013-12-21 10:21:00
4:49 AM,21.2,19.4,93,29.81,2.0,North,3.5,-,N/A,,Overcast,10,2013-12-21 10:49:00
4:54 AM,21.0,19.0,92,29.88,2.0,NNE,3.5,-,N/A,,Overcast,20,2013-12-21 10:54:00
5:12 AM,21.0,19.0,92,29.80,3.0,NNE,3.5,-,N/A,,Overcast,20,2013-12-21 11:12:00
5:32 AM,21.0,19.0,92,29.79,2.5,NNE,5.8,-,N/A,,Overcast,30,2013-12-21 11:32:00
5:46 AM,21.0,19.0,92,29.81,3.0,NNE,4.6,-,N/A,,Overcast,30,2013-12-21 11:46:00
5:54 AM,21.0,19.0,92,29.87,3.0,NE,4.6,-,N/A,,Overcast,40,2013-12-21 11:54:00
6:54 AM,21.0,19.0,92,29.91,4.0,Calm,Calm,-,N/A,,Overcast,0,2013-12-21 12:54:00
7:54 AM,21.0,19.0,92,29.91,3.0,NNE,5.8,-,N/A,,Overcast,20,2013-12-21 13:54:00
8:54 AM,21.9,19.9,92,29.92,4.0,North,4.6,-,N/A,,Overcast,10,2013-12-21 14:54:00
9:28 AM,23.0,21.0,92,29.88,5.0,Calm,Calm,-,N/A,,Overcast,0,2013-12-21 15:28:00
9:54 AM,23.0,19.9,88,29.95,5.0,NE,6.9,-,N/A,,Overcast,40,2013-12-21 15:54:00
10:38 AM,23.0,19.9,88,29.87,5.0,NE,6.9,-,N/A,,Overcast,40,2013-12-21 16:38:00
10:54 AM,23.0,19.9,88,29.95,5.0,NE,5.8,-,N/A,,Overcast,40,2013-12-21 16:54:00
11:54 AM,25.0,19.9,81,29.89,10.0,NE,9.2,-,N/A,,Overcast,40,2013-12-21 17:54:00
12:44 PM,25.0,19.9,81,29.87,10.0,NE,8.1,-,N/A,,Overcast,50,2013-12-21 18:44:00
12:54 PM,25.0,19.0,78,29.94,10.0,NE,6.9,-,N/A,,Overcast,50,2013-12-21 18:54:00
1:54 PM,26.1,19.0,75,29.94,10.0,NE,8.1,-,N/A,,Overcast,40,2013-12-21 19:54:00
2:54 PM,26.1,19.0,75,29.92,10.0,NNE,6.9,-,N/A,,Overcast,30,2013-12-21 20:54:00
3:54 PM,26.1,19.0,75,29.94,10.0,NNE,8.1,-,N/A,,Overcast,30,2013-12-21 21:54:00
4:54 PM,25.0,19.0,78,29.95,10.0,NNE,8.1,-,N/A,,Overcast,20,2013-12-21 22:54:00
5:54 PM,25.0,19.0,78,29.94,10.0,NNE,8.1,-,N/A,,Overcast,30,2013-12-21 23:54:00
6:54 PM,25.0,19.0,78,29.94,10.0,NE,9.2,-,N/A,,Overcast,40,2013-12-22 00:54:00
7:54 PM,25.0,19.0,78,29.96,10.0,NE,8.1,-,N/A,,Overcast,40,2013-12-22 01:54:00
8:54 PM,25.0,19.0,78,29.94,10.0,NE,9.2,-,N/A,,Overcast,40,2013-12-22 02:54:00
9:37 PM,25.0,19.0,78,29.82,10.0,NE,10.4,-,N/A,,Overcast,40,2013-12-22 03:37:00
9:54 PM,25.0,18.0,75,29.88,10.0,NE,11.5,-,N/A,,Overcast,50,2013-12-22 03:54:00
10:32 PM,24.1,16.0,71,29.81,10.0,NE,13.8,-,N/A,,Overcast,50,2013-12-22 04:32:00
10:54 PM,24.1,16.0,71,29.88,10.0,ENE,12.7,-,N/A,,Overcast,60,2013-12-22 04:54:00
11:54 PM,23.0,16.0,74,29.89,10.0,NNE,9.2,-,N/A,,Overcast,30,2013-12-22 05:54:00